• Join FlightAware (Why Join?)
  • Login
  • US Flag 
01:26PM EDT


 

Airport Tracker/Info


-or-


 

Live Flight TrackerFlight Track Log ✈ DAL6234 ✈ 16-Apr-2013 ✈ KSYR - KLGA

Flight Track Log - Related Links

Times and Time Zones

All times are in EDT time to prevent confusion due to time zone crossing. See the DAL6234 flight status page for this flight to view local times or setup timezone preferences in your user account.

Time Position Orientation Groundspeed Altitude Reporting Facility
EDT Latitude Longitude Course Direction KTS MPH feet Rate Location/Type
06:00PM 43.1075 -76.1319 250° West 166 191 1,500  Level Boston Center
06:01PM 43.0958 -76.1767 250° West 187 215 3,500 2,400 Climbing Boston Center
06:02PM 43.0364 -76.1417 157° South 270 311 6,000 2,520 Climbing Boston Center
06:03PM 42.9750 -76.0444 131° Southeast 321 369 9,000 2,220 Climbing Boston Center
06:04PM 42.9133 -75.9472 131° Southeast 321 369 10,700 1,680 Climbing Boston Center
06:05PM 42.8539 -75.8419 128° Southeast 354 407 12,400 1,980 Climbing Boston Center
06:06PM 42.7911 -75.7111 123° Southeast 390 449 14,700 2,220 Climbing Boston Center
06:07PM 42.7261 -75.5747 123° Southeast 416 479 16,800 1,980 Climbing Boston Center
06:08PM 42.6650 -75.4417 122° Southeast 427 491 18,600 1,440 Climbing Boston Center
06:09PM 42.5842 -75.2686 122° Southeast 439 505 20,000 600 Climbing Boston Center
06:10PM 42.5147 -75.1189 122° Southeast 458 527 20,000  Level Boston Center
06:11PM 42.4550 -74.9981 124° Southeast 470 541 20,000  Level Boston Center
06:12PM 42.3672 -74.8147 123° Southeast 483 556 20,000  Level Boston Center
06:13PM 42.2953 -74.6631 123° Southeast 483 556 20,000 -240 Level Boston Center
06:14PM 42.2231 -74.5175 124° Southeast 483 556 19,600 -780 Descending Boston Center
06:15PM 42.1467 -74.3525 122° Southeast 478 550 18,300 -780 Descending Boston Center
06:16PM 42.0619 -74.1822 124° Southeast 465 535 18,000 -180 Descending Boston Center
06:17PM 41.9889 -74.0433 125° Southeast 465 535 18,000  Level Boston Center
06:18PM 41.8917 -73.9878 157° South 421 484 18,000 -660 Level Boston Center
06:19PM 41.7669 -73.9569 170° South 409 471 16,700 -1,680 Descending Boston Center
06:20PM 41.6756 -73.9353 170° South 395 455 14,700 -2,160 Descending Boston Center
06:21PM 41.5697 -73.9106 170° South 363 418 12,500 -2,100 Descending Boston Center
06:22PM 41.5167 -73.9000 172° South 328 377 11,500 -1,740 Descending New York TRACON
06:23PM 41.4333 -73.8833 171° South 311 358 9,900 -1,620 Descending New York TRACON
06:24PM 41.3667 -73.8167 143° Southeast 304 350 8,300 -960 Descending New York TRACON
06:25PM 41.3000 -73.7500 143° Southeast 293 337 8,000 -180 Descending New York TRACON
06:26PM 41.2333 -73.7000 151° Southeast 298 343 8,000 -120 Level New York TRACON
06:27PM 41.1667 -73.6333 143° Southeast 306 352 7,800 -900 Descending New York TRACON
06:28PM 41.1000 -73.6167 169° South 273 314 6,300 -1,440 Descending New York TRACON
06:29PM 41.0333 -73.6667 210° Southwest 204 235 4,900 -1,080 Descending New York TRACON
06:30PM 41.0000 -73.6833 201° Southwest 137 158 4,100 -480 Descending New York TRACON
06:31PM 40.9667 -73.7167 217° Southwest 137 158 4,000 -60 Descending New York TRACON
06:32PM 40.9333 -73.6833 143° Southeast 171 197 4,000 -600 Level New York TRACON
06:33PM 40.9167 -73.7167 237° Southwest 153 176 2,800 -1,020 Descending New York TRACON
06:34PM 40.9000 -73.7667 246° West 139 160 2,000 -420 Descending New York TRACON
06:35PM 40.8667 -73.8000 217° Southwest 139 160 2,000 -300 Level New York TRACON
06:36PM 40.8500 -73.8167 217° Southwest 136 157 1,400 -600 Descending New York TRACON
06:37PM 40.8167 -73.8500 217° Southwest 103 119 800 -600 Descending New York TRACON
06:38PM 40.7833 -73.8667 201° Southwest 108 124 200 -600 Descending New York TRACON
06:40PM 40.7772 -73.8726 180° South  Level Estimated
06:47PM 40.7772 -73.8726 180° South  Level Estimated